AFR643 LOWW-LFPG
Flight info
| Callsign | AFR643 |
|---|---|
| Flight time | 1h 39m |
| Altitude | 34000 |
| Route | MEDIX1C MEDIX DCT RENKA/N0438F360 L610 STAUB/N0372F240 L610 MAMOR DCT ASPAT DCT VIBOM DCT BETEX DCT IDOSA UN857 TOLVU/N0438F370 DCT RAPOR DCT VEDUS VEDUS9W |
| Aircraft | A320/M-SDE1E2E3FGHIJ2J3J4J5M1RWXYZ/LB1D1 |
Departure
| Time | 2026-04-25 22:02 |
|---|---|
| Airport | Vienna International Airport (LOWW) |
Arrival
| Time | 2026-04-25 23:41 |
|---|---|
| Airport | Charles de Gaulle International Airport (LFPG) |
| Time | Latitude | Longitude | Altitude | Speed | Heading |
|---|---|---|---|---|---|
| 2026-04-25 21:35 | 48.11915 | 16.56718 | 589 ft | 0 kts | 200° |
| 2026-04-25 21:49 | 48.11922 | 16.56722 | 597 ft | 1 kts | 200° |
| 2026-04-25 21:49 | 48.11931 | 16.56727 | 597 ft | 2 kts | 200° |
| 2026-04-25 21:49 | 48.11946 | 16.56734 | 597 ft | 2 kts | 199° |
| 2026-04-25 21:49 | 48.11960 | 16.56743 | 596 ft | 2 kts | 194° |
| 2026-04-25 21:50 | 48.11968 | 16.56745 | 596 ft | 1 kts | 177° |
| 2026-04-25 21:50 | 48.11976 | 16.56744 | 596 ft | 1 kts | 149° |
| 2026-04-25 21:50 | 48.11982 | 16.56736 | 595 ft | 1 kts | 121° |
| 2026-04-25 21:50 | 48.11983 | 16.56735 | 595 ft | 0 kts | 118° |
| 2026-04-25 21:53 | 48.11983 | 16.56736 | 595 ft | 1 kts | 117° |
| 2026-04-25 21:53 | 48.11976 | 16.56756 | 596 ft | 3 kts | 116° |
| 2026-04-25 21:53 | 48.11965 | 16.56793 | 597 ft | 4 kts | 114° |
| 2026-04-25 21:54 | 48.11953 | 16.56838 | 597 ft | 5 kts | 111° |
| 2026-04-25 21:54 | 48.11939 | 16.56887 | 598 ft | 5 kts | 114° |
| 2026-04-25 21:54 | 48.11923 | 16.56939 | 599 ft | 6 kts | 116° |
| 2026-04-25 21:54 | 48.11903 | 16.57001 | 600 ft | 7 kts | 116° |
| 2026-04-25 21:55 | 48.11880 | 16.57073 | 601 ft | 8 kts | 114° |
| 2026-04-25 21:55 | 48.11857 | 16.57153 | 603 ft | 8 kts | 106° |
| 2026-04-25 21:55 | 48.11848 | 16.57239 | 616 ft | 9 kts | 114° |
| 2026-04-25 21:55 | 48.11819 | 16.57323 | 608 ft | 10 kts | 116° |
| 2026-04-25 21:56 | 48.11811 | 16.57431 | 614 ft | 11 kts | 99° |
| 2026-04-25 21:56 | 48.11776 | 16.57480 | 609 ft | 10 kts | 172° |
| 2026-04-25 21:56 | 48.11693 | 16.57522 | 615 ft | 10 kts | 162° |
| 2026-04-25 21:56 | 48.11617 | 16.57558 | 613 ft | 13 kts | 164° |
| 2026-04-25 21:57 | 48.11525 | 16.57595 | 618 ft | 15 kts | 167° |
| 2026-04-25 21:57 | 48.11440 | 16.57627 | 618 ft | 0 kts | 163° |
| 2026-04-25 21:57 | 48.11426 | 16.57634 | 615 ft | 5 kts | 163° |
| 2026-04-25 21:57 | 48.11374 | 16.57657 | 611 ft | 12 kts | 163° |
| 2026-04-25 21:58 | 48.11267 | 16.57677 | 609 ft | 18 kts | 198° |
| 2026-04-25 21:58 | 48.11233 | 16.57661 | 620 ft | 7 kts | 205° |
| 2026-04-25 21:58 | 48.11160 | 16.57609 | 612 ft | 17 kts | 205° |
| 2026-04-25 21:58 | 48.11137 | 16.57588 | 604 ft | 7 kts | 216° |
| 2026-04-25 21:59 | 48.11068 | 16.57521 | 616 ft | 11 kts | 208° |
| 2026-04-25 21:59 | 48.11064 | 16.57518 | 614 ft | 0 kts | 207° |
| 2026-04-25 22:00 | 48.11046 | 16.57504 | 613 ft | 7 kts | 207° |
| 2026-04-25 22:00 | 48.10979 | 16.57452 | 610 ft | 12 kts | 210° |
| 2026-04-25 22:00 | 48.10968 | 16.57370 | 612 ft | 0 kts | 296° |
| 2026-04-25 22:01 | 48.10970 | 16.57364 | 618 ft | 7 kts | 296° |
| 2026-04-25 22:01 | 48.11093 | 16.56976 | 614 ft | 74 kts | 296° |
| 2026-04-25 22:01 | 48.11284 | 16.56392 | 603 ft | 112 kts | 296° |
| 2026-04-25 22:02 | 48.11842 | 16.54616 | 682 ft | 161 kts | 293° |
| 2026-04-25 22:02 | 48.12300 | 16.53122 | 1268 ft | 159 kts | 284° |
| 2026-04-25 22:02 | 48.12297 | 16.51492 | 1908 ft | 161 kts | 257° |
| 2026-04-25 22:02 | 48.11659 | 16.50058 | 2471 ft | 180 kts | 227° |
| 2026-04-25 22:03 | 48.10500 | 16.49046 | 2642 ft | 204 kts | 212° |
| 2026-04-25 22:03 | 48.09127 | 16.48175 | 2878 ft | 230 kts | 210° |
| 2026-04-25 22:03 | 48.07636 | 16.47043 | 3385 ft | 240 kts | 221° |
| 2026-04-25 22:03 | 48.06357 | 16.45492 | 4301 ft | 241 kts | 227° |
| 2026-04-25 22:04 | 48.05053 | 16.43774 | 4807 ft | 260 kts | 227° |
| 2026-04-25 22:04 | 48.03675 | 16.41943 | 5591 ft | 266 kts | 227° |
| 2026-04-25 22:04 | 48.02273 | 16.40096 | 6517 ft | 269 kts | 226° |
| 2026-04-25 22:04 | 48.00874 | 16.38265 | 7380 ft | 272 kts | 226° |
| 2026-04-25 22:05 | 47.99433 | 16.36387 | 8182 ft | 277 kts | 225° |
| 2026-04-25 22:05 | 47.97979 | 16.34475 | 9051 ft | 278 kts | 230° |
| 2026-04-25 22:05 | 47.96965 | 16.32110 | 9887 ft | 272 kts | 256° |
| 2026-04-25 22:05 | 47.96733 | 16.29288 | 10467 ft | 279 kts | 278° |
| 2026-04-25 22:06 | 47.97254 | 16.26459 | 10680 ft | 299 kts | 291° |
| 2026-04-25 22:06 | 47.98010 | 16.23422 | 11089 ft | 315 kts | 292° |
| 2026-04-25 22:06 | 47.98805 | 16.20344 | 11841 ft | 319 kts | 291° |
| 2026-04-25 22:06 | 47.99543 | 16.17234 | 12647 ft | 321 kts | 290° |
| 2026-04-25 22:07 | 48.00260 | 16.14033 | 13374 ft | 326 kts | 289° |
| 2026-04-25 22:07 | 48.00739 | 16.11890 | 13864 ft | 329 kts | 289° |
| 2026-04-25 22:07 | 48.01726 | 16.07551 | 14758 ft | 333 kts | 290° |
| 2026-04-25 22:07 | 48.02480 | 16.04292 | 15409 ft | 336 kts | 290° |
| 2026-04-25 22:08 | 48.03259 | 16.00954 | 16047 ft | 340 kts | 290° |
| 2026-04-25 22:08 | 48.04036 | 15.97640 | 16697 ft | 343 kts | 290° |
| 2026-04-25 22:08 | 48.04841 | 15.94208 | 17309 ft | 348 kts | 290° |
| 2026-04-25 22:08 | 48.05634 | 15.90806 | 17928 ft | 352 kts | 290° |
| 2026-04-25 22:09 | 48.06437 | 15.87357 | 18522 ft | 355 kts | 290° |
| 2026-04-25 22:09 | 48.07248 | 15.83858 | 19081 ft | 357 kts | 290° |
| 2026-04-25 22:09 | 48.08070 | 15.80306 | 19623 ft | 360 kts | 289° |
| 2026-04-25 22:09 | 48.08881 | 15.76777 | 20155 ft | 364 kts | 289° |
| 2026-04-25 22:10 | 48.09711 | 15.73153 | 20713 ft | 367 kts | 289° |
| 2026-04-25 22:10 | 48.10540 | 15.69545 | 21251 ft | 370 kts | 289° |
| 2026-04-25 22:10 | 48.11379 | 15.65895 | 21758 ft | 374 kts | 289° |
| 2026-04-25 22:10 | 48.12224 | 15.62219 | 22285 ft | 377 kts | 290° |
| 2026-04-25 22:11 | 48.13081 | 15.58484 | 22800 ft | 380 kts | 290° |
| 2026-04-25 22:11 | 48.13941 | 15.54733 | 23319 ft | 383 kts | 290° |
| 2026-04-25 22:11 | 48.14814 | 15.50913 | 23781 ft | 387 kts | 290° |
| 2026-04-25 22:11 | 48.15680 | 15.47124 | 24200 ft | 390 kts | 290° |
| 2026-04-25 22:12 | 48.16559 | 15.43266 | 24652 ft | 392 kts | 290° |
| 2026-04-25 22:12 | 48.17445 | 15.39372 | 25073 ft | 394 kts | 290° |
| 2026-04-25 22:12 | 48.18326 | 15.35493 | 25499 ft | 397 kts | 290° |
| 2026-04-25 22:12 | 48.18917 | 15.32890 | 25763 ft | 398 kts | 290° |
| 2026-04-25 22:13 | 48.20105 | 15.27641 | 26311 ft | 402 kts | 290° |
| 2026-04-25 22:13 | 48.21008 | 15.23644 | 26711 ft | 404 kts | 290° |
| 2026-04-25 22:13 | 48.21914 | 15.19622 | 27090 ft | 406 kts | 290° |
| 2026-04-25 22:13 | 48.22813 | 15.15629 | 27439 ft | 409 kts | 290° |
| 2026-04-25 22:14 | 48.23725 | 15.11569 | 27828 ft | 410 kts | 290° |
| 2026-04-25 22:14 | 48.24628 | 15.07540 | 28182 ft | 413 kts | 290° |
| 2026-04-25 22:14 | 48.25554 | 15.03402 | 28531 ft | 415 kts | 290° |
| 2026-04-25 22:14 | 48.26467 | 14.99311 | 28855 ft | 417 kts | 290° |
| 2026-04-25 22:15 | 48.27396 | 14.95139 | 29195 ft | 419 kts | 290° |
| 2026-04-25 22:15 | 48.28314 | 14.91014 | 29534 ft | 421 kts | 290° |
| 2026-04-25 22:15 | 48.29247 | 14.86810 | 29831 ft | 423 kts | 290° |
| 2026-04-25 22:16 | 48.31111 | 14.78386 | 30440 ft | 426 kts | 290° |
| 2026-04-25 22:16 | 48.32036 | 14.74196 | 30735 ft | 428 kts | 290° |
| 2026-04-25 22:16 | 48.32974 | 14.69934 | 30999 ft | 429 kts | 290° |
| 2026-04-25 22:16 | 48.33913 | 14.65656 | 31320 ft | 430 kts | 290° |
| 2026-04-25 22:17 | 48.34841 | 14.61423 | 31704 ft | 428 kts | 290° |
| 2026-04-25 22:17 | 48.35775 | 14.57152 | 32101 ft | 427 kts | 289° |
| 2026-04-25 22:17 | 48.36690 | 14.52961 | 32452 ft | 426 kts | 289° |
| 2026-04-25 22:17 | 48.37615 | 14.48717 | 32822 ft | 424 kts | 289° |
| 2026-04-25 22:18 | 48.38534 | 14.44493 | 33173 ft | 423 kts | 289° |
| 2026-04-25 22:18 | 48.39438 | 14.40328 | 33503 ft | 422 kts | 289° |
| 2026-04-25 22:18 | 48.40355 | 14.36093 | 33822 ft | 421 kts | 289° |
| 2026-04-25 22:18 | 48.41255 | 14.31928 | 34047 ft | 421 kts | 289° |
| 2026-04-25 22:19 | 48.42159 | 14.27737 | 34065 ft | 420 kts | 289° |
| 2026-04-25 22:19 | 48.43953 | 14.19394 | 34068 ft | 419 kts | 289° |
| 2026-04-25 22:20 | 48.45738 | 14.11066 | 34071 ft | 419 kts | 289° |
| 2026-04-25 22:20 | 48.47526 | 14.02684 | 34069 ft | 419 kts | 289° |
| 2026-04-25 22:21 | 48.49295 | 13.94357 | 34067 ft | 419 kts | 289° |
| 2026-04-25 22:21 | 48.51072 | 13.85963 | 34073 ft | 419 kts | 289° |
| 2026-04-25 22:22 | 48.52834 | 13.77600 | 34078 ft | 421 kts | 289° |
| 2026-04-25 22:22 | 48.54625 | 13.69072 | 34078 ft | 433 kts | 289° |
| 2026-04-25 22:23 | 48.56446 | 13.60353 | 34076 ft | 436 kts | 289° |
| 2026-04-25 22:23 | 48.58271 | 13.51592 | 34087 ft | 436 kts | 289° |
| 2026-04-25 22:24 | 48.60244 | 13.42929 | 34089 ft | 435 kts | 291° |
| 2026-04-25 22:24 | 48.62362 | 13.34367 | 34087 ft | 436 kts | 291° |
| 2026-04-25 22:25 | 48.64450 | 13.25760 | 34087 ft | 436 kts | 291° |
| 2026-04-25 22:25 | 48.66492 | 13.17223 | 34092 ft | 436 kts | 291° |
| 2026-04-25 22:26 | 48.68545 | 13.08592 | 34098 ft | 436 kts | 291° |
| 2026-04-25 22:26 | 48.70595 | 12.99928 | 34094 ft | 436 kts | 291° |
| 2026-04-25 22:27 | 48.72625 | 12.91300 | 34097 ft | 435 kts | 290° |
| 2026-04-25 22:27 | 48.74650 | 12.82668 | 34098 ft | 435 kts | 290° |
| 2026-04-25 22:28 | 48.76671 | 12.74012 | 34099 ft | 435 kts | 290° |
| 2026-04-25 22:28 | 48.78679 | 12.65384 | 34101 ft | 435 kts | 290° |
| 2026-04-25 22:29 | 48.80680 | 12.56740 | 34104 ft | 435 kts | 290° |
| 2026-04-25 22:29 | 48.82686 | 12.48041 | 34108 ft | 435 kts | 290° |
| 2026-04-25 22:30 | 48.85666 | 12.35049 | 34108 ft | 435 kts | 290° |
| 2026-04-25 22:30 | 48.87319 | 12.27809 | 34112 ft | 435 kts | 290° |
| 2026-04-25 22:31 | 48.89607 | 12.17632 | 34114 ft | 435 kts | 289° |
| 2026-04-25 22:31 | 48.91460 | 12.08908 | 34115 ft | 436 kts | 289° |
| 2026-04-25 22:32 | 48.93316 | 12.00152 | 34113 ft | 435 kts | 289° |
| 2026-04-25 22:32 | 48.95175 | 11.91390 | 34117 ft | 436 kts | 288° |
| 2026-04-25 22:33 | 48.97028 | 11.82622 | 34117 ft | 435 kts | 288° |
| 2026-04-25 22:33 | 48.98559 | 11.75299 | 34117 ft | 436 kts | 288° |
| 2026-04-25 22:34 | 49.00401 | 11.66494 | 34119 ft | 436 kts | 288° |
| 2026-04-25 22:34 | 49.02239 | 11.57706 | 34119 ft | 435 kts | 288° |
| 2026-04-25 22:35 | 49.04062 | 11.48952 | 34119 ft | 436 kts | 288° |
| 2026-04-25 22:35 | 49.05887 | 11.40148 | 34124 ft | 435 kts | 288° |
| 2026-04-25 22:36 | 49.07700 | 11.31362 | 34134 ft | 435 kts | 288° |
| 2026-04-25 22:36 | 49.09511 | 11.22547 | 34134 ft | 435 kts | 288° |
| 2026-04-25 22:37 | 49.11315 | 11.13726 | 34138 ft | 436 kts | 287° |
| 2026-04-25 22:37 | 49.13112 | 11.04898 | 34154 ft | 436 kts | 287° |
| 2026-04-25 22:38 | 49.14909 | 10.96030 | 34149 ft | 436 kts | 287° |
| 2026-04-25 22:38 | 49.16689 | 10.87206 | 34159 ft | 436 kts | 287° |
| 2026-04-25 22:39 | 49.18423 | 10.78349 | 34167 ft | 436 kts | 285° |
| 2026-04-25 22:39 | 49.19878 | 10.69322 | 34181 ft | 436 kts | 284° |
| 2026-04-25 22:40 | 49.21321 | 10.60320 | 34181 ft | 436 kts | 284° |
| 2026-04-25 22:40 | 49.22790 | 10.51346 | 34185 ft | 436 kts | 284° |
| 2026-04-25 22:41 | 49.24257 | 10.42364 | 34174 ft | 436 kts | 284° |
| 2026-04-25 22:41 | 49.25720 | 10.33339 | 34159 ft | 435 kts | 284° |
| 2026-04-25 22:42 | 49.27171 | 10.24336 | 34160 ft | 436 kts | 284° |
| 2026-04-25 22:42 | 49.28614 | 10.15334 | 34165 ft | 436 kts | 283° |
| 2026-04-25 22:43 | 49.30043 | 10.06370 | 34161 ft | 436 kts | 283° |
| 2026-04-25 22:43 | 49.31471 | 9.97368 | 34154 ft | 436 kts | 283° |
| 2026-04-25 22:44 | 49.32890 | 9.88347 | 34158 ft | 436 kts | 283° |
| 2026-04-25 22:44 | 49.34311 | 9.79277 | 34155 ft | 436 kts | 283° |
| 2026-04-25 22:45 | 49.35719 | 9.70245 | 34154 ft | 436 kts | 283° |
| 2026-04-25 22:45 | 49.37122 | 9.61204 | 34150 ft | 436 kts | 283° |
| 2026-04-25 22:46 | 49.38515 | 9.52173 | 34153 ft | 436 kts | 282° |
| 2026-04-25 22:46 | 49.39902 | 9.43123 | 34151 ft | 436 kts | 282° |
| 2026-04-25 22:47 | 49.41298 | 9.34018 | 34155 ft | 437 kts | 282° |
| 2026-04-25 22:47 | 49.42678 | 9.24956 | 34155 ft | 436 kts | 282° |
| 2026-04-25 22:48 | 49.44052 | 9.15841 | 34159 ft | 437 kts | 282° |
| 2026-04-25 22:48 | 49.45413 | 9.06758 | 34163 ft | 437 kts | 282° |
| 2026-04-25 22:49 | 49.46769 | 8.97650 | 34169 ft | 437 kts | 282° |
| 2026-04-25 22:49 | 49.48108 | 8.88604 | 34174 ft | 437 kts | 282° |
| 2026-04-25 22:50 | 49.49452 | 8.79468 | 34178 ft | 437 kts | 282° |
| 2026-04-25 22:50 | 49.50785 | 8.70352 | 34185 ft | 437 kts | 281° |
| 2026-04-25 22:51 | 49.52113 | 8.61222 | 34183 ft | 437 kts | 281° |
| 2026-04-25 22:51 | 49.53431 | 8.52098 | 34183 ft | 437 kts | 281° |
| 2026-04-25 22:52 | 49.54737 | 8.42959 | 34183 ft | 438 kts | 281° |
| 2026-04-25 22:52 | 49.55827 | 8.35317 | 34183 ft | 438 kts | 281° |
| 2026-04-25 22:53 | 49.57345 | 8.24630 | 34179 ft | 438 kts | 281° |
| 2026-04-25 22:53 | 49.58639 | 8.15472 | 34180 ft | 439 kts | 281° |
| 2026-04-25 22:54 | 49.59931 | 8.06260 | 34176 ft | 439 kts | 280° |
| 2026-04-25 22:54 | 49.61221 | 7.97015 | 34181 ft | 440 kts | 280° |
| 2026-04-25 22:55 | 49.62495 | 7.87828 | 34177 ft | 440 kts | 280° |
| 2026-04-25 22:55 | 49.63768 | 7.78591 | 34178 ft | 441 kts | 280° |
| 2026-04-25 22:56 | 49.65035 | 7.69343 | 34183 ft | 441 kts | 280° |
| 2026-04-25 22:56 | 49.66295 | 7.60080 | 34182 ft | 442 kts | 280° |
| 2026-04-25 22:57 | 49.67550 | 7.50796 | 34179 ft | 442 kts | 280° |
| 2026-04-25 22:57 | 49.68797 | 7.41510 | 34187 ft | 443 kts | 279° |
| 2026-04-25 22:58 | 49.70046 | 7.32151 | 34182 ft | 443 kts | 279° |
| 2026-04-25 22:58 | 49.71275 | 7.22881 | 34183 ft | 444 kts | 279° |
| 2026-04-25 22:59 | 49.72511 | 7.13489 | 34198 ft | 444 kts | 279° |
| 2026-04-25 22:59 | 49.73731 | 7.04160 | 34190 ft | 444 kts | 279° |
| 2026-04-25 23:00 | 49.74950 | 6.94780 | 34180 ft | 445 kts | 279° |
| 2026-04-25 23:00 | 49.76160 | 6.85401 | 34183 ft | 446 kts | 279° |
| 2026-04-25 23:01 | 49.77363 | 6.76016 | 34186 ft | 446 kts | 279° |
| 2026-04-25 23:01 | 49.78568 | 6.66553 | 34188 ft | 447 kts | 279° |
| 2026-04-25 23:02 | 49.79762 | 6.57167 | 34185 ft | 447 kts | 279° |
| 2026-04-25 23:02 | 49.80893 | 6.47702 | 34191 ft | 447 kts | 275° |
| 2026-04-25 23:03 | 49.80924 | 6.38168 | 34207 ft | 445 kts | 262° |
| 2026-04-25 23:03 | 49.79757 | 6.28782 | 34204 ft | 446 kts | 257° |
| 2026-04-25 23:04 | 49.78728 | 6.20922 | 34212 ft | 446 kts | 258° |
| 2026-04-25 23:04 | 49.77267 | 6.09919 | 34214 ft | 447 kts | 257° |
| 2026-04-25 23:05 | 49.76012 | 6.00531 | 34213 ft | 445 kts | 257° |
| 2026-04-25 23:05 | 49.74767 | 5.91376 | 33748 ft | 428 kts | 257° |
| 2026-04-25 23:06 | 49.74095 | 5.86910 | 33158 ft | 424 kts | 253° |
| 2026-04-25 23:06 | 49.73153 | 5.82576 | 32559 ft | 421 kts | 249° |
| 2026-04-25 23:06 | 49.72167 | 5.78378 | 32024 ft | 417 kts | 249° |
| 2026-04-25 23:06 | 49.71187 | 5.74161 | 31494 ft | 413 kts | 249° |
| 2026-04-25 23:07 | 49.70233 | 5.70050 | 31270 ft | 406 kts | 249° |
| 2026-04-25 23:07 | 49.69272 | 5.65915 | 31225 ft | 412 kts | 249° |
| 2026-04-25 23:07 | 49.67317 | 5.57545 | 31220 ft | 414 kts | 249° |
| 2026-04-25 23:08 | 49.65359 | 5.49196 | 31221 ft | 415 kts | 249° |
| 2026-04-25 23:08 | 49.63396 | 5.40861 | 31220 ft | 415 kts | 249° |
| 2026-04-25 23:09 | 49.61454 | 5.32424 | 31217 ft | 416 kts | 251° |
| 2026-04-25 23:09 | 49.59776 | 5.23905 | 31220 ft | 417 kts | 257° |
| 2026-04-25 23:10 | 49.59166 | 5.15016 | 31069 ft | 416 kts | 269° |
| 2026-04-25 23:10 | 49.59222 | 5.10599 | 30670 ft | 415 kts | 270° |
| 2026-04-25 23:10 | 49.59271 | 5.06162 | 30167 ft | 412 kts | 270° |
| 2026-04-25 23:11 | 49.59312 | 5.01735 | 29571 ft | 409 kts | 269° |
| 2026-04-25 23:11 | 49.59347 | 4.97406 | 29022 ft | 406 kts | 269° |
| 2026-04-25 23:11 | 49.59380 | 4.93061 | 28458 ft | 403 kts | 269° |
| 2026-04-25 23:11 | 49.59409 | 4.88774 | 27915 ft | 399 kts | 269° |
| 2026-04-25 23:12 | 49.59436 | 4.84522 | 27368 ft | 397 kts | 269° |
| 2026-04-25 23:12 | 49.59462 | 4.80265 | 26839 ft | 394 kts | 269° |
| 2026-04-25 23:12 | 49.59487 | 4.76088 | 26324 ft | 391 kts | 269° |
| 2026-04-25 23:12 | 49.59509 | 4.71892 | 25814 ft | 388 kts | 269° |
| 2026-04-25 23:13 | 49.59530 | 4.67765 | 25298 ft | 386 kts | 269° |
| 2026-04-25 23:13 | 49.59550 | 4.63630 | 24812 ft | 383 kts | 269° |
| 2026-04-25 23:13 | 49.59567 | 4.59547 | 24330 ft | 381 kts | 269° |
| 2026-04-25 23:13 | 49.59584 | 4.55480 | 23863 ft | 378 kts | 269° |
| 2026-04-25 23:14 | 49.59598 | 4.51466 | 23326 ft | 376 kts | 269° |
| 2026-04-25 23:14 | 49.59611 | 4.47452 | 23022 ft | 367 kts | 269° |
| 2026-04-25 23:14 | 49.59623 | 4.43577 | 22539 ft | 363 kts | 269° |
| 2026-04-25 23:14 | 49.59632 | 4.39644 | 21817 ft | 367 kts | 269° |
| 2026-04-25 23:15 | 49.59641 | 4.35706 | 21295 ft | 365 kts | 270° |
| 2026-04-25 23:15 | 49.59648 | 4.31843 | 20812 ft | 362 kts | 270° |
| 2026-04-25 23:15 | 49.59655 | 4.27951 | 20334 ft | 360 kts | 270° |
| 2026-04-25 23:15 | 49.59660 | 4.24153 | 19870 ft | 357 kts | 270° |
| 2026-04-25 23:16 | 49.59663 | 4.20313 | 19398 ft | 355 kts | 270° |
| 2026-04-25 23:16 | 49.59665 | 4.16504 | 18954 ft | 353 kts | 270° |
| 2026-04-25 23:16 | 49.59666 | 4.12771 | 18515 ft | 351 kts | 270° |
| 2026-04-25 23:16 | 49.59550 | 4.09001 | 17998 ft | 349 kts | 261° |
| 2026-04-25 23:17 | 49.58911 | 4.05406 | 17486 ft | 348 kts | 248° |
| 2026-04-25 23:17 | 49.57753 | 4.02140 | 16986 ft | 347 kts | 237° |
| 2026-04-25 23:17 | 49.56443 | 3.99068 | 16510 ft | 345 kts | 238° |
| 2026-04-25 23:17 | 49.55131 | 3.95964 | 16051 ft | 343 kts | 238° |
| 2026-04-25 23:18 | 49.53832 | 3.92881 | 15591 ft | 341 kts | 238° |
| 2026-04-25 23:18 | 49.52558 | 3.89857 | 15140 ft | 339 kts | 237° |
| 2026-04-25 23:18 | 49.51275 | 3.86816 | 14700 ft | 337 kts | 238° |
| 2026-04-25 23:18 | 49.50004 | 3.83807 | 14267 ft | 335 kts | 237° |
| 2026-04-25 23:19 | 49.48744 | 3.80827 | 13817 ft | 333 kts | 237° |
| 2026-04-25 23:19 | 49.47212 | 3.78176 | 13385 ft | 330 kts | 216° |
| 2026-04-25 23:19 | 49.45170 | 3.76576 | 13250 ft | 332 kts | 204° |
| 2026-04-25 23:19 | 49.43278 | 3.74618 | 13219 ft | 332 kts | 226° |
| 2026-04-25 23:20 | 49.41998 | 3.71710 | 13218 ft | 330 kts | 246° |
| 2026-04-25 23:20 | 49.41176 | 3.68398 | 13215 ft | 330 kts | 253° |
| 2026-04-25 23:20 | 49.40835 | 3.64974 | 13219 ft | 328 kts | 273° |
| 2026-04-25 23:20 | 49.41007 | 3.61472 | 13220 ft | 328 kts | 275° |
| 2026-04-25 23:21 | 49.41202 | 3.57994 | 13221 ft | 328 kts | 276° |
| 2026-04-25 23:21 | 49.41405 | 3.54500 | 13221 ft | 328 kts | 276° |
| 2026-04-25 23:21 | 49.41609 | 3.51001 | 13218 ft | 328 kts | 276° |
| 2026-04-25 23:21 | 49.41764 | 3.47533 | 13219 ft | 328 kts | 270° |
| 2026-04-25 23:22 | 49.41507 | 3.44031 | 13221 ft | 329 kts | 257° |
| 2026-04-25 23:22 | 49.40773 | 3.40683 | 13222 ft | 330 kts | 248° |
| 2026-04-25 23:22 | 49.39895 | 3.37468 | 13217 ft | 330 kts | 248° |
| 2026-04-25 23:23 | 49.38138 | 3.30923 | 13216 ft | 330 kts | 248° |
| 2026-04-25 23:23 | 49.37280 | 3.27716 | 13095 ft | 328 kts | 248° |
| 2026-04-25 23:23 | 49.36407 | 3.24465 | 12741 ft | 326 kts | 248° |
| 2026-04-25 23:23 | 49.35553 | 3.21288 | 12310 ft | 325 kts | 248° |
| 2026-04-25 23:24 | 49.34684 | 3.18061 | 11864 ft | 323 kts | 248° |
| 2026-04-25 23:24 | 49.33835 | 3.14913 | 11414 ft | 321 kts | 248° |
| 2026-04-25 23:24 | 49.32981 | 3.11752 | 10982 ft | 319 kts | 248° |
| 2026-04-25 23:24 | 49.32416 | 3.09663 | 10697 ft | 318 kts | 248° |
| 2026-04-25 23:25 | 49.31290 | 3.05504 | 10135 ft | 316 kts | 248° |
| 2026-04-25 23:25 | 49.30453 | 3.02420 | 9671 ft | 314 kts | 248° |
| 2026-04-25 23:25 | 49.29896 | 3.00365 | 9379 ft | 312 kts | 248° |
| 2026-04-25 23:25 | 49.29060 | 2.97292 | 8919 ft | 310 kts | 248° |
| 2026-04-25 23:26 | 49.27960 | 2.93249 | 8339 ft | 308 kts | 248° |
| 2026-04-25 23:26 | 49.27415 | 2.91248 | 8054 ft | 307 kts | 248° |
| 2026-04-25 23:26 | 49.26596 | 2.88246 | 7623 ft | 305 kts | 248° |
| 2026-04-25 23:26 | 49.25775 | 2.85233 | 7196 ft | 303 kts | 248° |
| 2026-04-25 23:27 | 49.24972 | 2.82286 | 6788 ft | 302 kts | 248° |
| 2026-04-25 23:27 | 49.24171 | 2.79356 | 6632 ft | 290 kts | 248° |
| 2026-04-25 23:27 | 49.23422 | 2.76625 | 6490 ft | 279 kts | 248° |
| 2026-04-25 23:27 | 49.22673 | 2.73899 | 6265 ft | 272 kts | 248° |
| 2026-04-25 23:28 | 49.21924 | 2.71173 | 6215 ft | 278 kts | 248° |
| 2026-04-25 23:28 | 49.21190 | 2.68493 | 6211 ft | 277 kts | 248° |
| 2026-04-25 23:28 | 49.20438 | 2.65760 | 6212 ft | 277 kts | 248° |
| 2026-04-25 23:28 | 49.19695 | 2.63070 | 6211 ft | 276 kts | 248° |
| 2026-04-25 23:29 | 49.18947 | 2.60366 | 6085 ft | 275 kts | 248° |
| 2026-04-25 23:29 | 49.18305 | 2.57621 | 5759 ft | 274 kts | 257° |
| 2026-04-25 23:29 | 49.18033 | 2.54780 | 5419 ft | 272 kts | 268° |
| 2026-04-25 23:29 | 49.17989 | 2.51890 | 5046 ft | 270 kts | 269° |
| 2026-04-25 23:30 | 49.17936 | 2.49013 | 4667 ft | 269 kts | 269° |
| 2026-04-25 23:30 | 49.17877 | 2.46169 | 4282 ft | 269 kts | 269° |
| 2026-04-25 23:30 | 49.17814 | 2.43288 | 4045 ft | 275 kts | 268° |
| 2026-04-25 23:30 | 49.17748 | 2.40400 | 4542 ft | 273 kts | 268° |
| 2026-04-25 23:31 | 49.17682 | 2.37503 | 4897 ft | 271 kts | 269° |
| 2026-04-25 23:31 | 49.17620 | 2.34642 | 4986 ft | 263 kts | 269° |
| 2026-04-25 23:31 | 49.17573 | 2.31956 | 4991 ft | 248 kts | 269° |
| 2026-04-25 23:31 | 49.17536 | 2.29380 | 4994 ft | 236 kts | 269° |
| 2026-04-25 23:32 | 49.17503 | 2.26833 | 4999 ft | 240 kts | 269° |
| 2026-04-25 23:32 | 49.17399 | 2.24333 | 4989 ft | 238 kts | 256° |
| 2026-04-25 23:32 | 49.16605 | 2.22116 | 4997 ft | 241 kts | 224° |
| 2026-04-25 23:32 | 49.15197 | 2.20839 | 5000 ft | 235 kts | 196° |
| 2026-04-25 23:33 | 49.13654 | 2.20261 | 4993 ft | 219 kts | 192° |
| 2026-04-25 23:33 | 49.12169 | 2.19788 | 4997 ft | 221 kts | 192° |
| 2026-04-25 23:33 | 49.10682 | 2.19294 | 4997 ft | 220 kts | 193° |
| 2026-04-25 23:33 | 49.09181 | 2.18753 | 4997 ft | 220 kts | 193° |
| 2026-04-25 23:34 | 49.07712 | 2.18197 | 5024 ft | 218 kts | 194° |
| 2026-04-25 23:34 | 49.06238 | 2.17627 | 4967 ft | 217 kts | 194° |
| 2026-04-25 23:34 | 49.04778 | 2.17057 | 4693 ft | 215 kts | 194° |
| 2026-04-25 23:34 | 49.03354 | 2.16497 | 4422 ft | 206 kts | 194° |
| 2026-04-25 23:35 | 49.01985 | 2.15986 | 4114 ft | 201 kts | 187° |
| 2026-04-25 23:35 | 49.00646 | 2.16375 | 4007 ft | 202 kts | 148° |
| 2026-04-25 23:35 | 48.99736 | 2.17917 | 3997 ft | 199 kts | 112° |
| 2026-04-25 23:35 | 48.99512 | 2.19999 | 3997 ft | 200 kts | 92° |
| 2026-04-25 23:36 | 48.99424 | 2.22109 | 3996 ft | 199 kts | 93° |
| 2026-04-25 23:36 | 48.99329 | 2.24191 | 3995 ft | 200 kts | 93° |
| 2026-04-25 23:36 | 48.99225 | 2.26306 | 3996 ft | 200 kts | 94° |
| 2026-04-25 23:36 | 48.99119 | 2.28398 | 3954 ft | 192 kts | 94° |
| 2026-04-25 23:37 | 48.99019 | 2.30341 | 3860 ft | 180 kts | 94° |
| 2026-04-25 23:37 | 48.98921 | 2.32219 | 3607 ft | 176 kts | 94° |
| 2026-04-25 23:37 | 48.98825 | 2.34080 | 3319 ft | 175 kts | 94° |
| 2026-04-25 23:37 | 48.98731 | 2.35898 | 3031 ft | 174 kts | 94° |
| 2026-04-25 23:38 | 48.98635 | 2.37741 | 2750 ft | 172 kts | 94° |
| 2026-04-25 23:38 | 48.98552 | 2.39511 | 2551 ft | 164 kts | 92° |
| 2026-04-25 23:38 | 48.98544 | 2.41287 | 2355 ft | 167 kts | 87° |
| 2026-04-25 23:38 | 48.98601 | 2.42988 | 2142 ft | 151 kts | 85° |
| 2026-04-25 23:39 | 48.98670 | 2.44485 | 1947 ft | 138 kts | 84° |
| 2026-04-25 23:39 | 48.98745 | 2.45967 | 1760 ft | 141 kts | 84° |
| 2026-04-25 23:39 | 48.98821 | 2.47454 | 1569 ft | 142 kts | 84° |
| 2026-04-25 23:39 | 48.98899 | 2.48952 | 1380 ft | 142 kts | 84° |
| 2026-04-25 23:40 | 48.98977 | 2.50468 | 1177 ft | 144 kts | 84° |
| 2026-04-25 23:40 | 48.99056 | 2.51982 | 972 ft | 144 kts | 84° |
| 2026-04-25 23:40 | 48.99135 | 2.53502 | 776 ft | 144 kts | 84° |
| 2026-04-25 23:40 | 48.99215 | 2.55022 | 584 ft | 143 kts | 84° |
| 2026-04-25 23:41 | 48.99293 | 2.56538 | 394 ft | 143 kts | 84° |
| 2026-04-25 23:41 | 48.99376 | 2.57871 | 354 ft | 109 kts | 87° |
| 2026-04-25 23:41 | 48.99414 | 2.58716 | 358 ft | 51 kts | 85° |
| 2026-04-25 23:41 | 48.99457 | 2.59192 | 349 ft | 41 kts | 64° |
| 2026-04-25 23:42 | 48.99551 | 2.59522 | 358 ft | 14 kts | 65° |
| 2026-04-25 23:42 | 48.99555 | 2.59535 | 355 ft | 0 kts | 65° |
| 2026-04-25 23:43 | 48.99556 | 2.59540 | 356 ft | 3 kts | 64° |
| 2026-04-25 23:43 | 48.99581 | 2.59619 | 360 ft | 12 kts | 64° |
| 2026-04-25 23:43 | 48.99648 | 2.59689 | 353 ft | 14 kts | 7° |
| 2026-04-25 23:43 | 48.99747 | 2.59675 | 358 ft | 15 kts | 354° |
| 2026-04-25 23:44 | 48.99861 | 2.59662 | 354 ft | 17 kts | 358° |
| 2026-04-25 23:44 | 48.99977 | 2.59626 | 358 ft | 17 kts | 321° |
| 2026-04-25 23:44 | 48.99983 | 2.59513 | 355 ft | 11 kts | 265° |
| 2026-04-25 23:44 | 48.99984 | 2.59387 | 354 ft | 12 kts | 300° |
| 2026-04-25 23:45 | 49.00045 | 2.59289 | 355 ft | 14 kts | 314° |
| 2026-04-25 23:45 | 49.00055 | 2.59148 | 356 ft | 15 kts | 261° |
| 2026-04-25 23:45 | 49.00049 | 2.58981 | 356 ft | 17 kts | 280° |
| 2026-04-25 23:45 | 49.00141 | 2.58884 | 361 ft | 18 kts | 354° |
| 2026-04-25 23:46 | 49.00250 | 2.58878 | 353 ft | 14 kts | 355° |
| 2026-04-25 23:46 | 49.00319 | 2.58920 | 355 ft | 10 kts | 54° |
| 2026-04-25 23:46 | 49.00331 | 2.59008 | 353 ft | 0 kts | 89° |
| 2026-04-25 23:46 | 49.00331 | 2.59019 | 353 ft | 0 kts | 86° |